Time;durP1;ratioP1;P1;durP2;ratioP2;P2;SDS_P1;SDS_P2;PMS_P1;PMS_P2;Temp;Humidity;BMP_temperature;BMP_pressure;BME280_temperature;BME280_humidity;BME280_pressure;Samples;Min_cycle;Max_cycle;Signal;HPM_P1;HPM_P2
2022/03/07 00:01:25;;;;;;;;;22.33;20.67;;;;;3.71;59.07;102353.41;5077532;27;46783;-69
2022/03/07 00:03:50;;;;;;;;;32.67;26.67;;;;;3.72;59.51;102350.84;5077699;27;45307;-69
2022/03/07 00:06:16;;;;;;;;;31.33;26.00;;;;;3.70;59.53;102360.31;5078065;27;45285;-69
2022/03/07 00:08:41;;;;;;;;;19.67;17.00;;;;;3.63;59.49;102345.31;5077733;28;46310;-69
2022/03/07 00:11:07;;;;;;;;;25.00;21.00;;;;;3.53;59.22;102330.25;5077717;28;45340;-70
2022/03/07 00:13:32;;;;;;;;;20.67;19.00;;;;;3.51;59.01;102330.19;5077841;27;45860;-69
2022/03/07 00:15:57;;;;;;;;;25.67;22.67;;;;;3.58;59.04;102350.41;5077840;28;45289;-70
2022/03/07 00:18:23;;;;;;;;;25.67;21.00;;;;;3.64;58.78;102365.34;5077049;27;46354;-70
2022/03/07 00:20:48;;;;;;;;;22.67;21.33;;;;;3.47;58.99;102343.94;5077319;27;45691;-69
2022/03/07 00:23:15;;;;;;;;;22.33;20.00;;;;;3.58;59.12;102362.53;5077860;27;45892;-70
2022/03/07 00:25:40;;;;;;;;;21.00;17.00;;;;;3.56;58.64;102366.81;5077762;28;45367;-70
2022/03/07 00:28:06;;;;;;;;;31.33;22.33;;;;;3.41;59.07;102338.56;5077611;27;46161;-70
2022/03/07 00:30:31;;;;;;;;;24.67;19.00;;;;;3.22;58.59;102305.84;5076861;27;45399;-69
2022/03/07 00:32:57;;;;;;;;;19.67;18.33;;;;;3.48;58.65;102350.94;5077743;27;45343;-69
2022/03/07 00:35:22;;;;;;;;;23.33;18.67;;;;;3.54;58.77;102363.28;5077767;27;45473;-69
2022/03/07 00:37:48;;;;;;;;;27.33;24.67;;;;;3.35;59.32;102333.16;5092851;27;46207;-70
2022/03/07 00:40:13;;;;;;;;;26.00;25.00;;;;;3.45;59.74;102361.25;5077580;27;45430;-70
2022/03/07 00:42:39;;;;;;;;;24.67;22.00;;;;;3.42;59.48;102369.84;5077585;27;45777;-70
2022/03/07 00:45:08;;;;;;;;;22.67;18.00;;;;;3.47;59.63;102365.69;5076862;27;45576;-70
2022/03/07 00:47:34;;;;;;;;;33.33;25.00;;;;;3.47;59.69;102367.38;5077376;28;46602;-69
2022/03/07 00:50:00;;;;;;;;;24.33;22.67;;;;;3.45;59.50;102380.34;5077312;27;45366;-69
2022/03/07 00:52:26;;;;;;;;;20.67;19.00;;;;;3.31;60.05;102361.69;5077180;27;45417;-69
2022/03/07 00:54:51;;;;;;;;;22.33;17.67;;;;;3.38;59.35;102369.69;5076957;27;45338;-69
2022/03/07 00:57:17;;;;;;;;;22.00;21.00;;;;;3.40;59.22;102374.13;5077176;27;45708;-69
2022/03/07 00:59:42;;;;;;;;;26.00;21.67;;;;;3.26;59.72;102360.63;5077162;27;45621;-70
2022/03/07 01:02:10;;;;;;;;;24.33;20.67;;;;;3.25;59.89;102353.69;5077498;27;45327;-70
2022/03/07 01:04:35;;;;;;;;;24.33;22.33;;;;;3.24;59.94;102359.72;5077639;27;45256;-70
2022/03/07 01:07:01;;;;;;;;;24.00;20.33;;;;;3.22;59.79;102357.88;5076941;27;45961;-70
2022/03/07 01:09:27;;;;;;;;;22.33;19.33;;;;;3.13;59.89;102345.44;5076937;27;45352;-70
2022/03/07 01:11:52;;;;;;;;;28.33;23.33;;;;;2.99;60.16;102323.28;5077273;28;45284;-70
2022/03/07 01:14:18;;;;;;;;;25.67;17.33;;;;;3.26;59.91;102367.56;5077576;27;45249;-70
2022/03/07 01:16:43;;;;;;;;;26.67;20.33;;;;;3.24;60.03;102364.03;5077022;27;45599;-70
2022/03/07 01:19:08;;;;;;;;;18.33;15.67;;;;;3.06;60.10;102341.75;5076920;28;45311;-70
2022/03/07 01:21:34;;;;;;;;;26.00;24.33;;;;;3.03;60.24;102332.97;5076390;28;45690;-69
2022/03/07 01:23:59;;;;;;;;;32.00;22.00;;;;;3.13;60.01;102354.13;5077516;27;45311;-70
2022/03/07 01:26:25;;;;;;;;;27.00;22.33;;;;;3.13;60.32;102355.88;5076897;28;46171;-70
2022/03/07 01:28:50;;;;;;;;;21.67;21.67;;;;;3.14;60.58;102355.03;5077038;27;45474;-70
2022/03/07 01:31:15;;;;;;;;;25.67;23.33;;;;;3.03;60.44;102341.66;5076797;28;45461;-70
2022/03/07 01:33:41;;;;;;;;;25.00;20.00;;;;;3.05;60.22;102347.81;5077314;27;45830;-69
2022/03/07 01:36:06;;;;;;;;;24.00;18.33;;;;;3.00;60.30;102344.16;5076388;28;46266;-70
2022/03/07 01:38:31;;;;;;;;;24.33;21.67;;;;;3.05;60.95;102362.50;5076838;27;45390;-69
2022/03/07 01:40:57;;;;;;;;;21.67;20.67;;;;;2.94;60.86;102338.75;5076775;27;45305;-69
2022/03/07 01:43:23;;;;;;;;;22.00;19.67;;;;;3.03;60.33;102359.84;5076759;28;45323;-69
2022/03/07 01:45:49;;;;;;;;;27.00;20.00;;;;;2.96;60.15;102356.19;5076461;27;47613;-69
2022/03/07 01:48:14;;;;;;;;;27.67;21.33;;;;;2.92;60.69;102345.59;5076417;27;45553;-69
2022/03/07 01:50:40;;;;;;;;;28.00;23.33;;;;;2.86;60.69;102338.47;5076260;27;45643;-69
2022/03/07 01:53:05;;;;;;;;;27.00;21.00;;;;;2.96;60.37;102353.56;5076911;27;45135;-69
2022/03/07 01:55:30;;;;;;;;;24.00;21.00;;;;;2.99;60.10;102351.91;5076476;28;45429;-69
2022/03/07 01:57:56;;;;;;;;;59.00;46.00;;;;;2.91;60.46;102346.44;5076461;27;45345;-69
2022/03/07 02:00:24;;;;;;;;;27.33;24.00;;;;;2.94;60.34;102359.56;5076484;27;45292;-69
2022/03/07 02:02:50;;;;;;;;;24.00;21.33;;;;;2.84;60.00;102342.72;5076854;27;45322;-70
2022/03/07 02:05:16;;;;;;;;;24.67;20.33;;;;;2.87;60.13;102357.56;5077362;27;46205;-69
2022/03/07 02:07:41;;;;;;;;;15.00;15.00;;;;;2.84;60.49;102355.72;5079899;27;45315;-70
2022/03/07 02:10:08;;;;;;;;;24.33;19.67;;;;;2.81;60.05;102342.63;5079863;27;45470;-70
2022/03/07 02:12:34;;;;;;;;;23.33;23.33;;;;;2.82;60.02;102341.81;5080291;27;45795;-70
2022/03/07 02:15:00;;;;;;;;;22.33;19.00;;;;;2.66;59.75;102309.16;5079041;27;45474;-69
2022/03/07 02:17:26;;;;;;;;;27.67;23.00;;;;;2.78;59.94;102332.13;5079608;27;45441;-70
2022/03/07 02:19:51;;;;;;;;;27.67;24.33;;;;;2.81;59.92;102334.81;5079867;27;45219;-69
2022/03/07 02:22:16;;;;;;;;;28.67;23.33;;;;;2.74;59.94;102318.09;5080105;27;45443;-70
2022/03/07 02:24:43;;;;;;;;;30.00;23.67;;;;;2.78;60.23;102324.31;5079370;27;45705;-70
2022/03/07 02:27:11;;;;;;;;;24.00;20.33;;;;;2.67;60.25;102310.03;5079748;28;45434;-70
2022/03/07 02:29:38;;;;;;;;;28.33;24.33;;;;;2.75;60.75;102326.81;5079760;27;45327;-70
2022/03/07 02:32:07;;;;;;;;;27.67;23.67;;;;;2.72;60.37;102321.50;5079565;27;45473;-70
2022/03/07 02:34:32;;;;;;;;;22.33;20.00;;;;;2.65;59.99;102309.13;5079013;27;46822;-70
2022/03/07 02:36:58;;;;;;;;;23.00;23.00;;;;;2.69;60.12;102318.81;5079634;27;45314;-70
2022/03/07 02:39:24;;;;;;;;;25.67;22.67;;;;;2.70;60.22;102321.47;5079626;27;45396;-70
2022/03/07 02:41:49;;;;;;;;;21.33;21.33;;;;;2.61;60.40;102306.41;5079407;27;45406;-69
2022/03/07 02:44:15;;;;;;;;;25.33;18.33;;;;;2.59;59.91;102296.78;5079184;27;45356;-70
2022/03/07 02:46:41;;;;;;;;;24.00;19.67;;;;;2.60;59.65;102301.16;5079264;27;45521;-70
2022/03/07 02:49:07;;;;;;;;;27.33;21.33;;;;;2.52;59.99;102289.59;5079136;28;45472;-69
2022/03/07 02:51:34;;;;;;;;;27.67;24.33;;;;;2.58;60.12;102308.88;5079566;27;45306;-69
2022/03/07 02:53:59;;;;;;;;;30.00;25.33;;;;;2.60;60.19;102308.97;5078812;27;46053;-69
2022/03/07 02:56:25;;;;;;;;;24.33;21.33;;;;;2.58;60.52;102310.59;5078815;27;45415;-69
2022/03/07 02:58:50;;;;;;;;;23.67;22.00;;;;;2.53;60.40;102297.44;5079443;27;45465;-69
2022/03/07 03:01:16;;;;;;;;;22.67;20.33;;;;;2.55;59.71;102297.50;5079045;28;45490;-70
2022/03/07 03:03:41;;;;;;;;;20.33;20.33;;;;;2.39;60.59;102276.16;5078924;27;46364;-69
2022/03/07 03:06:07;;;;;;;;;24.67;24.00;;;;;2.33;60.26;102280.25;5078967;27;45254;-70
2022/03/07 03:08:33;;;;;;;;;25.00;20.33;;;;;2.40;60.00;102300.44;5078822;27;45466;-70
2022/03/07 03:10:58;;;;;;;;;23.67;22.33;;;;;2.37;60.25;102287.34;5079152;27;45335;-69
2022/03/07 03:13:24;;;;;;;;;22.00;20.67;;;;;2.33;59.84;102285.47;5078989;27;46134;-69
2022/03/07 03:15:52;;;;;;;;;28.33;22.67;;;;;2.49;60.02;102308.56;5077783;28;45508;-69
2022/03/07 03:18:19;;;;;;;;;21.33;18.33;;;;;2.51;59.81;102317.28;5078781;27;45358;-69
2022/03/07 03:20:46;;;;;;;;;24.67;20.00;;;;;2.50;59.69;102320.75;5078569;27;45442;-69
2022/03/07 03:23:12;;;;;;;;;20.67;20.33;;;;;2.46;60.13;102318.84;5078417;27;45264;-69
2022/03/07 03:25:38;;;;;;;;;31.00;25.33;;;;;2.45;59.54;102311.88;5078936;27;45677;-70
2022/03/07 03:28:04;;;;;;;;;23.00;22.33;;;;;2.40;59.95;102297.84;5078684;27;45200;-69
2022/03/07 03:30:29;;;;;;;;;28.67;22.33;;;;;2.41;60.21;102308.31;5078913;27;45423;-69
2022/03/07 03:32:55;;;;;;;;;24.67;22.67;;;;;2.33;60.44;102299.34;5078166;28;45454;-69
2022/03/07 03:35:21;;;;;;;;;33.00;26.67;;;;;2.30;60.32;102301.81;5078472;27;45396;-69
2022/03/07 03:37:46;;;;;;;;;25.00;22.33;;;;;2.32;60.42;102305.34;5078600;27;45404;-69
2022/03/07 03:40:12;;;;;;;;;29.33;25.00;;;;;2.30;60.72;102306.16;5078415;28;45442;-69
2022/03/07 03:42:38;;;;;;;;;18.33;14.00;;;;;2.26;60.38;102303.41;5077910;27;46659;-69
2022/03/07 03:45:05;;;;;;;;;30.67;22.33;;;;;2.27;60.28;102319.91;5078265;27;45232;-69
2022/03/07 03:47:41;;;;;;;;;28.33;22.67;;;;;2.14;60.20;102286.50;5077878;27;45424;-69
2022/03/07 03:50:10;;;;;;;;;27.67;27.00;;;;;2.26;60.60;102306.00;5078463;27;45422;-69
2022/03/07 03:52:36;;;;;;;;;28.00;22.00;;;;;2.07;60.03;102278.47;5078185;27;45465;-69
2022/03/07 03:55:02;;;;;;;;;34.67;26.67;;;;;2.24;60.28;102301.59;5078046;28;45292;-69
2022/03/07 03:57:29;;;;;;;;;27.00;20.00;;;;;2.22;60.07;102290.25;5078174;27;45443;-69
2022/03/07 03:59:55;;;;;;;;;34.00;23.00;;;;;2.22;60.00;102298.94;5078546;27;45260;-70
2022/03/07 04:02:20;;;;;;;;;24.67;24.33;;;;;2.09;59.68;102279.41;5077686;27;46127;-69
2022/03/07 04:04:45;;;;;;;;;31.67;24.00;;;;;2.13;59.83;102293.41;5077859;27;45293;-70
2022/03/07 04:07:11;;;;;;;;;33.67;26.67;;;;;2.12;59.98;102293.34;5077978;27;45255;-69
2022/03/07 04:09:36;;;;;;;;;37.00;27.00;;;;;2.20;59.81;102312.72;5078379;28;45298;-69
2022/03/07 04:12:02;;;;;;;;;44.67;30.67;;;;;2.00;60.15;102273.88;5078280;28;46517;-70
2022/03/07 04:14:27;;;;;;;;;25.67;24.67;;;;;2.16;59.88;102308.22;5077891;28;45372;-70
2022/03/07 04:16:54;;;;;;;;;28.00;25.67;;;;;1.87;60.18;102266.44;5078064;27;45348;-69
2022/03/07 04:19:20;;;;;;;;;28.33;25.33;;;;;2.04;60.05;102304.34;5077641;27;45435;-69
2022/03/07 04:21:46;;;;;;;;;21.67;19.33;;;;;1.85;60.00;102294.97;5077603;27;46010;-69
2022/03/07 04:24:12;;;;;;;;;35.00;27.67;;;;;1.77;60.31;102287.72;5077918;27;45306;-69
2022/03/07 04:26:39;;;;;;;;;28.67;27.33;;;;;1.81;59.87;102295.66;5077529;27;45445;-69
2022/03/07 04:29:07;;;;;;;;;28.00;26.00;;;;;1.87;59.50;102305.41;5077241;27;45308;-69
2022/03/07 04:31:35;;;;;;;;;33.33;29.33;;;;;1.74;59.43;102298.84;5077290;28;46178;-69
2022/03/07 04:34:00;;;;;;;;;31.67;23.33;;;;;1.73;59.11;102307.50;5077540;27;45332;-71
2022/03/07 04:36:26;;;;;;;;;37.33;29.00;;;;;1.64;59.48;102299.31;5077919;27;45341;-70
2022/03/07 04:38:51;;;;;;;;;30.33;24.00;;;;;1.71;59.26;102306.53;5077922;27;45353;-70
2022/03/07 04:41:17;;;;;;;;;35.67;29.00;;;;;1.70;59.37;102303.06;5077324;27;45832;-69
2022/03/07 04:43:42;;;;;;;;;33.33;27.00;;;;;1.71;59.14;102303.94;5077348;27;45393;-70
2022/03/07 04:46:08;;;;;;;;;33.33;27.33;;;;;1.70;59.53;102318.63;5077676;28;45374;-69
2022/03/07 04:48:33;;;;;;;;;28.33;25.33;;;;;1.60;59.40;102292.22;5077792;27;45414;-70
2022/03/07 04:50:59;;;;;;;;;30.00;26.33;;;;;1.66;59.45;102297.69;5077150;28;45940;-69
2022/03/07 04:53:24;;;;;;;;;34.67;25.00;;;;;1.59;59.18;102291.34;5077581;28;45351;-69
2022/03/07 04:55:49;;;;;;;;;31.33;24.33;;;;;1.65;59.42;102295.91;5077184;27;45279;-69
2022/03/07 04:58:15;;;;;;;;;25.00;22.67;;;;;1.67;59.33;102299.44;5077485;28;45392;-69
2022/03/07 05:00:40;;;;;;;;;26.33;24.33;;;;;1.58;59.52;102291.31;5077128;28;45395;-69
2022/03/07 05:03:05;;;;;;;;;27.00;22.50;;;;;1.55;59.42;102302.44;5077048;27;45523;-69
2022/03/07 05:05:31;;;;;;;;;24.00;21.00;;;;;1.57;59.32;102300.81;5076889;28;45751;-69
2022/03/07 05:07:56;;;;;;;;;27.33;23.33;;;;;1.38;59.42;102270.66;5077572;27;45521;-69
2022/03/07 05:10:22;;;;;;;;;29.67;25.67;;;;;1.56;59.20;102299.91;5077027;28;46171;-68
2022/03/07 05:12:48;;;;;;;;;30.67;25.33;;;;;1.52;59.49;102298.00;5077441;27;45306;-69
2022/03/07 05:15:14;;;;;;;;;29.00;26.33;;;;;1.40;59.82;102281.97;5076789;27;45333;-69
2022/03/07 05:17:51;;;;;;;;;29.67;24.33;;;;;1.43;59.77;102305.44;5077301;27;45395;-69
2022/03/07 05:20:16;;;;;;;;;30.00;24.00;;;;;1.41;59.72;102298.41;5076844;27;46878;-68
2022/03/07 05:22:43;;;;;;;;;31.00;27.67;;;;;1.45;59.92;102300.31;5075504;28;45837;-69
2022/03/07 05:25:13;;;;;;;;;31.33;23.00;;;;;1.43;59.95;102301.97;5077268;27;45303;-68
2022/03/07 05:27:39;;;;;;;;;32.33;25.33;;;;;1.44;59.95;102302.03;5077112;27;45532;-68
2022/03/07 05:30:06;;;;;;;;;38.33;27.00;;;;;1.42;59.94;102297.59;5076597;27;46203;-68
2022/03/07 05:32:32;;;;;;;;;30.67;27.33;;;;;1.17;60.03;102257.69;5076810;27;45434;-69
2022/03/07 05:34:58;;;;;;;;;36.00;25.00;;;;;1.21;59.66;102276.03;5075260;28;45417;-69
2022/03/07 05:37:24;;;;;;;;;32.33;26.33;;;;;1.21;59.82;102283.81;5076934;27;45318;-69
2022/03/07 05:39:49;;;;;;;;;35.00;23.67;;;;;1.26;59.89;102284.00;5063175;28;45468;-69
2022/03/07 05:42:14;;;;;;;;;28.33;24.00;;;;;1.18;59.97;102277.63;5068780;28;45226;-69
2022/03/07 05:44:40;;;;;;;;;22.33;20.00;;;;;1.19;60.13;102281.97;5077913;28;45666;-69
2022/03/07 05:47:05;;;;;;;;;29.67;24.67;;;;;1.20;60.30;102286.34;5080627;28;45360;-68
2022/03/07 05:49:31;;;;;;;;;35.33;25.00;;;;;1.02;60.31;102257.97;5079927;28;46050;-69
2022/03/07 05:51:56;;;;;;;;;28.33;22.33;;;;;1.10;60.15;102279.88;5079817;27;45233;-69
2022/03/07 05:54:21;;;;;;;;;27.67;26.33;;;;;1.10;60.45;102282.50;5080134;28;45232;-68
2022/03/07 05:56:47;;;;;;;;;22.33;22.33;;;;;1.16;60.33;102294.81;5080496;28;45442;-69
2022/03/07 05:59:12;;;;;;;;;36.67;25.00;;;;;1.11;60.42;102294.63;5079643;27;46594;-68
2022/03/07 06:01:38;;;;;;;;;31.67;29.33;;;;;1.05;60.35;102289.22;5079831;27;45361;-68
2022/03/07 06:04:04;;;;;;;;;25.33;25.33;;;;;1.14;60.15;102309.47;5080062;27;45515;-69
2022/03/07 06:06:29;;;;;;;;;28.67;23.00;;;;;0.95;60.04;102280.16;5080160;28;45457;-69
2022/03/07 06:08:55;;;;;;;;;34.67;29.33;;;;;0.91;59.97;102278.25;5079646;27;45618;-69
2022/03/07 06:11:21;;;;;;;;;33.33;25.67;;;;;1.07;60.17;102312.63;5079702;27;45533;-70
2022/03/07 06:13:46;;;;;;;;;30.33;27.00;;;;;0.87;60.20;102273.75;5079801;27;45383;-68
2022/03/07 06:16:12;;;;;;;;;29.33;29.33;;;;;0.97;59.89;102301.84;5080440;27;45378;-70
2022/03/07 06:18:37;;;;;;;;;30.00;25.33;;;;;0.95;59.82;102303.50;5079447;27;47608;-70
2022/03/07 06:21:03;;;;;;;;;36.00;27.00;;;;;0.95;60.15;102294.84;5079754;27;45386;-68
2022/03/07 06:23:29;;;;;;;;;32.33;26.00;;;;;0.80;60.04;102262.25;5079313;27;45388;-70
2022/03/07 06:25:54;;;;;;;;;14.33;14.33;;;;;0.95;59.99;102287.94;5079886;27;45373;-70
2022/03/07 06:28:19;;;;;;;;;37.33;32.33;;;;;0.96;60.20;102283.63;5079705;27;46452;-70
2022/03/07 06:30:48;;;;;;;;;33.00;26.67;;;;;0.96;59.74;102289.72;5078945;27;45421;-70
2022/03/07 06:33:15;;;;;;;;;34.33;26.00;;;;;0.91;60.18;102293.81;5079484;27;45366;-70
2022/03/07 06:35:41;;;;;;;;;34.67;28.00;;;;;0.94;60.55;102298.25;5079167;28;45522;-69
2022/03/07 06:38:06;;;;;;;;;37.00;28.00;;;;;0.80;59.96;102276.91;5078654;27;45492;-69
2022/03/07 06:40:32;;;;;;;;;33.67;32.00;;;;;0.78;60.22;102273.38;5079299;27;45450;-69
2022/03/07 06:42:58;;;;;;;;;25.67;22.00;;;;;0.88;60.17;102298.88;5079602;27;45434;-69
2022/03/07 06:45:23;;;;;;;;;28.67;27.33;;;;;0.94;59.94;102293.94;5079182;27;45519;-70
2022/03/07 06:47:49;;;;;;;;;31.33;27.33;;;;;0.93;59.79;102293.88;5079054;27;46251;-71
2022/03/07 06:50:16;;;;;;;;;40.33;31.33;;;;;1.02;60.04;102308.13;5078482;27;45613;-69
2022/03/07 06:52:41;;;;;;;;;33.00;29.33;;;;;1.06;59.72;102310.84;5079054;27;45300;-70
2022/03/07 06:55:07;;;;;;;;;28.33;27.33;;;;;1.17;59.44;102299.19;5079303;27;45228;-70
2022/03/07 06:57:33;;;;;;;;;32.00;30.67;;;;;1.20;59.24;102307.97;5079170;27;46404;-73
2022/03/07 06:59:58;;;;;;;;;40.33;31.00;;;;;0.91;59.09;102252.31;5078652;27;45419;-72
2022/03/07 07:02:24;;;;;;;;;30.67;24.00;;;;;1.21;59.02;102324.44;5079004;27;45546;-72
2022/03/07 07:04:49;;;;;;;;;38.33;34.33;;;;;1.07;59.21;102297.06;5079047;28;45570;-70
2022/03/07 07:07:16;;;;;;;;;41.00;30.00;;;;;1.03;59.07;102290.84;5078649;28;47498;-70
2022/03/07 07:09:41;;;;;;;;;35.67;30.00;;;;;1.24;59.11;102329.75;5078674;27;45611;-70
2022/03/07 07:12:08;;;;;;;;;29.33;29.00;;;;;1.27;58.65;102323.81;5078824;27;45328;-70
2022/03/07 07:14:34;;;;;;;;;33.33;27.67;;;;;1.33;58.96;102329.25;5078410;27;45705;-70
2022/03/07 07:16:59;;;;;;;;;38.33;32.33;;;;;1.39;58.66;102320.03;5090590;27;45900;-69
2022/03/07 07:19:25;;;;;;;;;31.67;28.00;;;;;1.48;58.40;102326.38;5058284;28;45229;-70
2022/03/07 07:21:50;;;;;;;;;30.67;30.33;;;;;1.50;58.37;102314.38;5074352;28;45298;-70
2022/03/07 07:24:16;;;;;;;;;33.67;32.67;;;;;1.47;57.67;102317.72;5079044;27;45486;-70
2022/03/07 07:26:41;;;;;;;;;39.33;33.67;;;;;1.49;57.73;102300.50;5077139;28;46255;-70
2022/03/07 07:29:07;;;;;;;;;26.00;25.00;;;;;1.61;57.62;102302.69;5077935;28;45328;-70
2022/03/07 07:31:32;;;;;;;;;32.00;28.67;;;;;1.83;57.43;102322.59;5078606;28;45379;-72
2022/03/07 07:33:58;;;;;;;;;36.67;30.00;;;;;1.90;56.67;102314.22;5078796;27;45387;-70
2022/03/07 07:36:23;;;;;;;;;33.67;26.67;;;;;1.95;56.66;102316.06;5078580;27;46351;-70
2022/03/07 07:38:49;;;;;;;;;30.67;29.00;;;;;2.16;56.56;102339.41;5078445;27;45276;-70
2022/03/07 07:41:14;;;;;;;;;29.00;21.67;;;;;2.14;55.98;102341.94;5078567;27;45443;-72
2022/03/07 07:43:40;;;;;;;;;32.67;29.00;;;;;2.09;55.93;102335.69;5078023;28;45544;-69
2022/03/07 07:46:05;;;;;;;;;31.67;26.67;;;;;2.13;56.25;102337.56;5078287;27;46265;-69
2022/03/07 07:48:30;;;;;;;;;32.33;29.00;;;;;2.25;56.03;102339.72;5077791;27;45461;-70
2022/03/07 07:50:56;;;;;;;;;28.00;25.00;;;;;2.05;55.45;102287.94;5078242;27;45256;-71
2022/03/07 07:53:21;;;;;;;;;34.67;31.67;;;;;2.91;53.22;102338.63;5078487;28;45489;-70
2022/03/07 07:55:46;;;;;;;;;33.00;28.00;;;;;2.99;53.42;102329.34;5077885;28;45333;-70
2022/03/07 07:58:12;;;;;;;;;27.67;26.33;;;;;2.88;52.97;102352.41;5077321;28;45314;-70
2022/03/07 08:00:38;;;;;;;;;28.00;25.00;;;;;2.86;53.41;102345.38;5077105;27;45379;-70
2022/03/07 08:03:03;;;;;;;;;26.67;22.33;;;;;2.85;53.34;102339.31;5076609;28;45330;-71
2022/03/07 08:05:28;;;;;;;;;26.67;21.33;;;;;2.95;53.37;102320.56;5077390;27;45463;-71
2022/03/07 08:07:54;;;;;;;;;28.00;26.00;;;;;3.54;51.69;102345.03;5077637;27;45473;-70
2022/03/07 08:10:19;;;;;;;;;27.00;25.67;;;;;3.55;51.61;102333.81;5078037;27;45242;-70
2022/03/07 08:12:46;;;;;;;;;28.00;22.33;;;;;3.53;51.42;102346.78;5077297;28;45213;-70
2022/03/07 08:15:13;;;;;;;;;30.33;22.33;;;;;3.42;51.42;102342.94;5077559;27;46576;-71
2022/03/07 08:17:46;;;;;;;;;27.33;25.33;;;;;4.04;51.46;102352.66;5077766;27;45404;-70
2022/03/07 08:20:13;;;;;;;;;20.00;19.67;;;;;6.35;46.85;102349.84;5077316;27;45220;-70
2022/03/07 08:22:39;;;;;;;;;27.33;25.00;;;;;8.62;44.07;102342.97;5077584;27;45270;-71
2022/03/07 08:25:05;;;;;;;;;23.33;21.67;;;;;9.09;43.26;102339.06;5077575;27;46208;-70
2022/03/07 08:27:32;;;;;;;;;28.67;25.67;;;;;8.23;41.52;102286.50;5077778;28;45481;-70
2022/03/07 08:29:58;;;;;;;;;31.00;26.33;;;;;7.95;41.62;102344.72;5077751;28;45399;-69
2022/03/07 08:32:23;;;;;;;;;29.67;25.33;;;;;7.59;41.90;102348.56;5077498;27;45301;-70
2022/03/07 08:34:49;;;;;;;;;31.33;21.00;;;;;7.56;41.26;102317.06;5077228;28;47212;-70
2022/03/07 08:37:14;;;;;;;;;31.33;23.33;;;;;8.33;41.30;102340.84;5077710;28;45319;-70
2022/03/07 08:39:39;;;;;;;;;27.00;23.00;;;;;9.51;38.38;102335.03;5077584;27;45514;-71
2022/03/07 08:42:05;;;;;;;;;44.33;37.67;;;;;10.67;36.05;102331.22;5077621;27;45368;-70
2022/03/07 08:44:31;;;;;;;;;22.67;18.67;;;;;9.38;37.38;102327.06;5076752;27;46473;-71
2022/03/07 08:46:56;;;;;;;;;18.33;18.33;;;;;8.09;40.10;102336.16;5076791;27;45637;-71
2022/03/07 08:49:22;;;;;;;;;26.67;24.00;;;;;7.04;40.99;102330.19;5077556;27;45648;-70
2022/03/07 08:51:47;;;;;;;;;35.33;25.00;;;;;7.11;42.73;102339.94;5077552;28;45367;-71
2022/03/07 08:54:14;;;;;;;;;24.00;22.00;;;;;8.28;39.75;102311.94;5077274;28;46192;-71
2022/03/07 08:56:40;;;;;;;;;27.00;23.67;;;;;9.20;39.59;102304.13;5077504;27;45483;-71
2022/03/07 08:59:05;;;;;;;;;24.33;22.33;;;;;9.30;39.17;102312.97;5076946;28;45472;-70
2022/03/07 09:01:31;;;;;;;;;29.00;23.33;;;;;9.38;38.60;102297.25;5077055;27;45413;-70
2022/03/07 09:03:57;;;;;;;;;22.00;19.67;;;;;9.06;37.08;102300.50;5076980;27;47106;-70
2022/03/07 09:06:22;;;;;;;;;20.00;19.00;;;;;9.11;37.83;102287.44;5077000;27;45347;-70
2022/03/07 09:08:48;;;;;;;;;24.67;21.67;;;;;9.10;37.03;102285.66;5077091;28;45406;-70
2022/03/07 09:11:13;;;;;;;;;21.00;20.00;;;;;8.79;37.44;102307.28;5077250;28;45378;-70
2022/03/07 09:13:38;;;;;;;;;18.67;18.67;;;;;8.23;38.31;102300.50;5077003;28;47306;-70
2022/03/07 09:16:04;;;;;;;;;18.67;18.67;;;;;7.60;38.36;102294.44;5079520;27;45349;-70
2022/03/07 09:18:30;;;;;;;;;18.67;13.67;;;;;7.44;39.11;102311.66;5080764;27;45373;-70
2022/03/07 09:20:56;;;;;;;;;21.00;20.00;;;;;7.57;39.03;102305.75;5080737;27;45221;-70
2022/03/07 09:23:22;;;;;;;;;22.67;19.00;;;;;7.63;38.76;102297.09;5079759;27;46107;-70
2022/03/07 09:25:47;;;;;;;;;19.33;16.00;;;;;7.37;39.15;102302.81;5080234;28;45225;-70
2022/03/07 09:28:13;;;;;;;;;22.33;17.33;;;;;7.60;39.36;102290.06;5080377;27;45214;-71
2022/03/07 09:30:38;;;;;;;;;23.67;20.33;;;;;7.91;39.02;102313.19;5080033;28;45465;-70
2022/03/07 09:33:04;;;;;;;;;22.33;20.00;;;;;8.32;37.94;102307.59;5079903;27;45327;-71
2022/03/07 09:35:30;;;;;;;;;37.67;34.33;;;;;8.27;37.64;102310.16;5079493;27;45433;-70
2022/03/07 09:37:56;;;;;;;;;25.00;17.33;;;;;8.31;36.74;102308.47;5080418;27;45272;-70
2022/03/07 09:40:21;;;;;;;;;28.67;22.67;;;;;8.34;37.61;102287.50;5079928;28;45348;-70
2022/03/07 09:42:47;;;;;;;;;26.00;23.00;;;;;8.31;38.28;102308.47;5079434;28;46234;-70
2022/03/07 09:45:13;;;;;;;;;21.67;21.67;;;;;8.27;37.72;102312.78;5078635;27;45478;-69
2022/03/07 09:47:40;;;;;;;;;26.00;18.33;;;;;8.47;37.79;102301.69;5079314;27;45641;-69
2022/03/07 09:50:06;;;;;;;;;18.67;17.33;;;;;8.66;38.41;102314.13;5080078;27;45446;-69
2022/03/07 09:52:32;;;;;;;;;19.67;18.00;;;;;8.84;37.10;102313.47;5079993;27;46430;-69
2022/03/07 09:54:58;;;;;;;;;22.33;18.00;;;;;8.53;37.65;102309.63;5080107;27;45295;-69
2022/03/07 09:57:24;;;;;;;;;21.33;19.00;;;;;8.95;37.84;102292.53;5080150;27;45370;-70
2022/03/07 09:59:49;;;;;;;;;19.33;18.00;;;;;9.34;36.16;102304.25;5080498;27;45487;-69
2022/03/07 10:02:19;;;;;;;;;19.33;16.33;;;;;9.05;36.08;102296.13;5080016;28;45985;-70
2022/03/07 10:04:46;;;;;;;;;22.00;19.00;;;;;8.67;37.04;102292.28;5079703;27;45315;-69
2022/03/07 10:07:12;;;;;;;;;20.00;17.00;;;;;8.06;36.97;102286.28;5080158;27;45273;-69
2022/03/07 10:09:38;;;;;;;;;19.67;19.00;;;;;7.69;37.55;102251.72;5080261;27;45410;-69
2022/03/07 10:12:04;;;;;;;;;22.67;18.33;;;;;8.08;37.48;102272.34;5079735;27;45404;-70
2022/03/07 10:14:46;;;;;;;;;20.67;18.67;;;;;8.71;36.71;102259.94;5080184;27;45667;-69
2022/03/07 10:17:24;;;;;;;;;18.00;15.67;;;;;9.73;36.67;102275.53;5079983;27;45244;-69
2022/03/07 10:19:51;;;;;;;;;14.33;13.33;;;;;10.96;34.17;102275.97;5079674;27;45396;-69
2022/03/07 10:22:23;;;;;;;;;16.00;12.00;;;;;12.11;33.40;102274.00;5079654;27;46218;-69
2022/03/07 10:25:08;;;;;;;;;12.33;11.33;;;;;12.77;30.67;102277.13;5079611;27;45315;-69
2022/03/07 10:27:37;;;;;;;;;13.33;10.00;;;;;13.41;30.62;102251.91;5079306;28;45406;-70
2022/03/07 10:30:08;;;;;;;;;17.00;15.00;;;;;14.07;28.85;102248.50;5079826;27;45381;-70
2022/03/07 10:32:33;;;;;;;;;15.67;15.33;;;;;14.05;27.51;102257.34;5079392;27;46249;-69
2022/03/07 10:34:59;;;;;;;;;15.00;14.33;;;;;14.01;28.12;102234.47;5079489;27;45549;-69
2022/03/07 10:37:36;;;;;;;;;18.00;14.67;;;;;14.09;28.52;102230.81;5078459;28;45446;-69
2022/03/07 10:40:07;;;;;;;;;14.00;14.00;;;;;13.80;27.91;102235.63;5069618;28;45409;-69
2022/03/07 10:42:35;;;;;;;;;12.00;12.00;;;;;13.24;29.31;102230.88;5079187;27;45317;-69
2022/03/07 10:45:04;;;;;;;;;17.67;14.67;;;;;12.55;29.38;102242.94;5078789;28;45328;-69
2022/03/07 10:47:30;;;;;;;;;11.33;11.33;;;;;11.78;29.69;102241.53;5079364;27;45376;-69
2022/03/07 10:49:58;;;;;;;;;16.67;15.67;;;;;11.08;29.68;102237.28;5079166;27;45279;-69
2022/03/07 10:52:33;;;;;;;;;21.00;16.33;;;;;10.60;30.77;102237.28;5078981;27;47106;-69
2022/03/07 10:54:58;;;;;;;;;13.67;13.67;;;;;9.94;31.48;102211.66;5079070;27;45330;-69
2022/03/07 10:57:24;;;;;;;;;14.67;14.33;;;;;9.80;32.12;102226.50;5079101;28;45457;-69
2022/03/07 10:59:49;;;;;;;;;16.00;14.00;;;;;9.15;32.67;102176.19;5079513;28;45256;-69
2022/03/07 11:02:17;;;;;;;;;5.33;5.33;;;;;9.27;32.81;102226.22;5079128;27;45818;-69
2022/03/07 11:04:51;;;;;;;;;16.00;14.00;;;;;8.79;33.52;102217.97;5079084;27;45424;-68
2022/03/07 11:07:16;;;;;;;;;16.00;14.67;;;;;8.62;33.88;102215.19;5078335;27;45428;-70
2022/03/07 11:09:43;;;;;;;;;13.67;13.67;;;;;8.21;33.91;102197.28;5073631;27;45911;-70
2022/03/07 11:12:15;;;;;;;;;21.33;16.33;;;;;7.95;34.74;102212.72;5074536;28;45851;-71